Date,TemperatureHighF,TemperatureAvgF,TemperatureLowF,DewpointHighF,DewpointAvgF,DewpointLowF,HumidityHigh,HumidityAvg,HumidityLow,PressureMaxIn,PressureMinIn,WindSpeedMaxMPH,WindSpeedAvgMPH,GustSpeedMaxMPH,PrecipitationSumIn
2013-9-1,78.0,66.7,64.0,63.0,58.2,53.0,82,75,56,0.00,40.00,4,2,12,0.01
2013-9-2,65.0,56.5,49.0,53.0,48.3,43.0,82,74,65,0.00,40.00,6,2,13,0.00
2013-9-3,70.0,51.1,42.0,50.0,43.1,38.0,84,76,36,0.00,40.00,1,0,8,0.00
2013-9-4,73.0,57.8,51.0,59.0,50.2,46.0,82,77,52,0.00,40.00,1,0,4,0.00
2013-9-5,66.0,55.8,51.0,50.0,46.1,40.0,81,71,49,0.00,40.00,4,2,7,0.00
2013-9-6,73.0,59.0,51.0,60.0,48.2,39.0,76,68,55,0.00,40.00,4,1,7,0.00
2013-9-7,85.0,70.0,66.0,62.0,56.2,-99.9,79,66,41,0.00,40.00,6,1,13,0.00
2013-9-8,69.0,59.4,53.0,57.0,49.6,44.0,83,70,58,0.00,40.00,6,3,16,0.00
2013-9-9,84.0,69.1,61.0,66.0,57.1,50.0,77,67,52,0.00,40.00,7,2,12,0.00
2013-9-10,85.0,73.6,67.0,62.0,60.0,56.0,81,64,38,0.00,40.00,3,1,12,0.00
2013-9-11,80.0,67.8,57.0,62.0,56.0,48.0,81,69,34,0.00,40.00,3,1,9,0.00
2013-9-12,59.0,54.7,47.0,51.0,47.4,35.0,83,77,55,0.00,40.00,3,0,9,0.00
2013-9-13,58.0,43.9,38.0,42.0,36.3,33.0,84,76,40,0.00,40.00,2,0,6,0.00
2013-9-14,63.0,48.2,39.0,49.0,36.4,-99.9,83,69,45,0.00,40.00,1,0,6,0.00
2013-9-15,60.0,54.1,51.0,49.0,46.1,36.0,82,75,57,0.00,40.00,5,2,13,0.67
2013-9-16,55.0,41.0,33.0,39.0,33.5,29.0,84,76,39,0.00,40.00,6,1,8,0.00
2013-9-17,60.0,47.0,35.0,50.0,38.9,31.0,84,75,49,0.00,40.00,6,2,8,0.00
2013-9-18,67.0,57.3,56.0,59.0,51.3,50.0,82,81,73,0.00,40.00,6,4,11,2.64
2013-9-19,77.0,69.2,65.0,64.0,61.3,59.0,81,77,61,0.00,40.00,3,1,15,2.00
2013-9-20,66.0,62.1,53.0,59.0,54.0,44.0,81,75,50,0.00,40.00,4,2,11,0.00
2013-9-21,53.0,47.7,42.0,44.0,37.0,-99.9,81,71,48,0.00,40.00,5,2,14,0.00
2013-9-22,51.0,40.2,32.0,37.0,32.7,28.0,84,75,50,0.00,40.00,7,2,10,0.00
2013-9-23,54.0,44.4,38.0,43.0,37.3,33.0,83,77,60,0.00,40.00,6,3,11,0.00
2013-9-24,63.0,48.6,40.0,47.0,41.5,35.0,83,78,50,0.00,40.00,4,2,7,0.00
2013-9-25,61.0,48.1,41.0,45.0,40.9,36.0,83,77,50,0.00,40.00,4,1,6,0.00
2013-9-26,61.0,51.2,40.0,48.0,43.2,35.0,84,75,58,0.00,40.00,6,-60,11,0.00
2013-9-27,59.0,52.9,50.0,46.0,43.4,42.0,75,70,58,0.00,40.00,6,4,9,0.00
2013-9-28,66.0,55.6,52.0,59.0,43.9,-99.9,82,68,49,0.00,40.00,7,4,12,0.46
2013-9-29,62.0,49.2,41.0,48.0,41.9,36.0,83,77,47,0.00,40.00,2,0,14,0.00
2013-9-30,54.0,51.0,50.0,42.0,38.9,37.0,71,64,54,0.00,40.00,3,2,9,0.00